Custer, SD (57730)

1:02 PM MDT on July 04, 2015 (GMT -0600)
Hay Creek Road | | Change Station
CLOSE
Current Station
Personal Weather Station
Location: Custer, SD
Elevation: 5325 ft
Nearby Weather Stations

Elev 5325 ft 43.70 °N, 103.67 °W | Updated 7 seconds ago

Partly Cloudy
Partly Cloudy
85.5 °F
Feels Like 83 °F
N
6.7
Wind Variable Wind from WNW
Gusts 9.8 mph

Today
High -- | Low -- °F
--% Chance of Precip.
Yesterday
High -- | Low -- °F
Precip. -- in
5:18 AM 8:39 PM
Waning Gibbous, 91% visible
Pressure 29.78 in
Visibility 10.0 miles
Clouds Few 8000 ft
Heat Index 83 °F
Dew Point 51 °F
Humidity 31%
Rainfall 0.00 in
Snow Depth Not available.
UV 9.0 out of 12
Pollen 5.20 out of 12
Air Quality Not available.
Flu Activity Not available.
METAR KCUT 041853Z AUTO 30009G17KT 270V340 10SM FEW080 29/08 A3000 RMK AO2 SLP082 T02940083

More Conditions Fewer Conditions

Pressure 29.78 in
Visibility 10.0 miles
Clouds Few 8000 ft
Heat Index 83 °F
Dew Point 51 °F
Humidity 31%
Rainfall 0.00 in
Snow Depth Not available.
UV 9.0 out of 12
Pollen 5.20 out of 12
Air Quality Not available.
Flu Activity Not available.
METAR KCUT 041853Z AUTO 30009G17KT 270V340 10SM FEW080 29/08 A3000 RMK AO2 SLP082 T02940083

More Conditions Fewer Conditions

10-Day Weather Forecast

×

Almanac

Astronomy

Jul. 04, 2015 Rise Set
Actual Time
Civil Twilight
Nautical Twilight
Astronomical Twilight
Moon
Length of Visible Light
Length of Day
Tomorrow will be .
, % of the Moon is Illuminated

Today's Extremes

State Highs State Lows

Community

WunderPhotos

Upload Photos

1,835,057 photos uploaded!

WunderBlogs® & News

Nearby

Air Quality

  Air Quality AQ Index Pollutant
Not available.

Snow Depth

Station Depth Elevation

Earthquake Activity

City Distance Mag. Time & Date
Minimum magnitude displayed is 2.5.

Coastal Water Temperatures

Place Temperature

Stations

Nearby Weather Stations

Station Location Temp. Windchill Dew Point Humidity Wind Precip. Elev Updated Type